createdAt,value
2018-07-10T00:00:32.488Z,24.20
2018-07-10T00:02:48.590Z,24.20
2018-07-10T00:04:19.733Z,24.20
2018-07-10T00:05:35.825Z,24.10
2018-07-10T00:07:54.929Z,24.10
2018-07-10T00:10:14.334Z,24.10
2018-07-10T00:11:27.325Z,24.10
2018-07-10T00:13:35.162Z,24.00
2018-07-10T00:14:39.299Z,23.90
2018-07-10T00:15:43.512Z,23.90
2018-07-10T00:16:47.705Z,23.90
2018-07-10T00:17:51.838Z,23.80
2018-07-10T00:18:56.693Z,23.80
2018-07-10T00:20:00.910Z,23.80
2018-07-10T00:21:05.089Z,23.80
2018-07-10T00:22:09.275Z,23.80
2018-07-10T00:23:13.433Z,23.80
2018-07-10T00:24:17.576Z,23.80
2018-07-10T00:25:21.742Z,23.80
2018-07-10T00:26:25.892Z,23.80
2018-07-10T00:27:30.048Z,23.80
2018-07-10T00:28:34.131Z,23.80
2018-07-10T00:29:38.232Z,23.80
2018-07-10T00:30:42.490Z,23.80
2018-07-10T00:31:46.609Z,23.80
2018-07-10T00:32:50.868Z,23.80
2018-07-10T00:33:55.008Z,23.80
2018-07-10T00:34:59.155Z,23.80
2018-07-10T00:36:03.312Z,23.80
2018-07-10T00:37:07.504Z,23.80
2018-07-10T00:38:22.995Z,23.80
2018-07-10T00:39:27.205Z,23.70
2018-07-10T00:40:31.471Z,23.70
2018-07-10T00:41:42.073Z,23.70
2018-07-10T00:43:49.923Z,23.70
2018-07-10T00:44:54.157Z,23.70
2018-07-10T00:45:58.316Z,23.70
2018-07-10T00:47:02.454Z,23.70
2018-07-10T00:48:06.618Z,23.70
2018-07-10T00:49:10.782Z,23.70
2018-07-10T00:50:15.095Z,23.70
2018-07-10T00:51:19.641Z,23.70
2018-07-10T00:52:29.542Z,23.70
2018-07-10T00:53:33.651Z,23.70
2018-07-10T00:54:37.781Z,23.70
2018-07-10T00:55:41.914Z,23.60
2018-07-10T00:56:46.110Z,23.60
2018-07-10T00:57:50.297Z,23.60
2018-07-10T00:58:55.803Z,23.60
2018-07-10T01:00:00.132Z,23.60
2018-07-10T01:01:04.363Z,23.50
2018-07-10T01:02:08.485Z,23.50
2018-07-10T01:03:12.667Z,23.50
2018-07-10T01:04:16.784Z,23.50
2018-07-10T01:05:20.964Z,23.50
2018-07-10T01:06:25.004Z,23.50
2018-07-10T01:07:29.142Z,23.50
2018-07-10T01:09:37.082Z,23.50
2018-07-10T01:10:41.557Z,23.50
2018-07-10T01:12:49.451Z,23.40
2018-07-10T01:13:53.539Z,23.40
2018-07-10T01:14:57.741Z,23.40
2018-07-10T01:16:01.944Z,23.40
2018-07-10T01:17:06.190Z,23.40
2018-07-10T01:18:10.326Z,23.40
2018-07-10T01:19:16.010Z,23.40
2018-07-10T01:20:20.994Z,23.40
2018-07-10T01:21:26.178Z,23.40
2018-07-10T01:22:30.289Z,23.40
2018-07-10T01:23:35.038Z,23.40
2018-07-10T01:24:39.278Z,23.30
2018-07-10T01:25:43.491Z,23.40
2018-07-10T01:26:49.146Z,23.30
2018-07-10T01:27:53.578Z,23.30
2018-07-10T01:30:05.955Z,23.30
2018-07-10T01:31:10.281Z,23.30
2018-07-10T01:32:14.553Z,23.30
2018-07-10T01:33:18.896Z,23.30
2018-07-10T01:34:23.308Z,23.30
2018-07-10T01:35:27.482Z,23.30
2018-07-10T01:36:31.595Z,23.30
2018-07-10T01:37:36.587Z,23.30
2018-07-10T01:38:40.796Z,23.20
2018-07-10T01:39:45.348Z,23.20
2018-07-10T01:40:50.363Z,23.20
2018-07-10T01:41:55.547Z,23.20
2018-07-10T01:42:59.738Z,23.20
2018-07-10T01:44:03.892Z,23.20
2018-07-10T01:45:08.037Z,23.20
2018-07-10T01:46:12.171Z,23.20
2018-07-10T01:47:16.324Z,23.20
2018-07-10T01:48:20.544Z,23.20
2018-07-10T01:49:24.735Z,23.10
2018-07-10T01:50:28.851Z,23.10
2018-07-10T01:51:34.073Z,23.10
2018-07-10T01:52:41.322Z,23.10
2018-07-10T01:53:51.739Z,23.20
2018-07-10T01:55:01.879Z,23.10
2018-07-10T01:56:06.003Z,23.10
2018-07-10T01:57:10.389Z,23.00
2018-07-10T01:58:14.647Z,23.00
2018-07-10T01:59:20.383Z,23.00
2018-07-10T02:00:35.354Z,23.00
2018-07-10T02:01:39.430Z,23.00
2018-07-10T02:02:43.633Z,23.00
2018-07-10T02:03:47.841Z,22.90
2018-07-10T02:04:52.257Z,22.90
2018-07-10T02:05:56.951Z,22.90
2018-07-10T02:07:01.100Z,22.90
2018-07-10T02:08:05.521Z,22.90
2018-07-10T02:09:09.638Z,22.90
2018-07-10T02:10:13.852Z,22.80
2018-07-10T02:11:18.049Z,22.80
2018-07-10T02:12:22.176Z,22.80
2018-07-10T02:13:26.321Z,22.80
2018-07-10T02:14:30.570Z,22.80
2018-07-10T02:15:34.728Z,22.80
2018-07-10T02:16:38.789Z,22.80
2018-07-10T02:17:42.931Z,22.80
2018-07-10T02:18:47.079Z,22.80
2018-07-10T02:22:01.965Z,22.70
2018-07-10T02:23:06.177Z,22.70
2018-07-10T02:24:10.395Z,22.70
2018-07-10T02:25:14.589Z,22.70
2018-07-10T02:26:25.110Z,22.70
2018-07-10T02:27:29.333Z,22.70
2018-07-10T02:28:33.485Z,22.70
2018-07-10T02:29:37.553Z,22.60
2018-07-10T02:30:41.725Z,22.60
2018-07-10T02:31:45.936Z,22.60
2018-07-10T02:32:50.083Z,22.60
2018-07-10T02:33:54.569Z,22.60
2018-07-10T02:34:58.801Z,22.60
2018-07-10T02:36:02.913Z,22.60
2018-07-10T02:37:07.051Z,22.50
2018-07-10T02:39:16.207Z,22.50
2018-07-10T02:40:20.415Z,22.50
2018-07-10T02:41:24.702Z,22.50
2018-07-10T02:42:30.550Z,22.50
2018-07-10T02:43:34.724Z,22.50
2018-07-10T02:44:39.172Z,22.50
2018-07-10T02:45:43.496Z,22.40
2018-07-10T02:46:47.613Z,22.40
2018-07-10T02:47:51.880Z,22.40
2018-07-10T02:48:58.164Z,22.40
2018-07-10T02:50:02.439Z,22.40
2018-07-10T02:51:07.993Z,22.40
2018-07-10T02:52:12.147Z,22.40
2018-07-10T02:53:16.295Z,22.40
2018-07-10T02:54:22.568Z,22.40
2018-07-10T02:55:26.742Z,22.30
2018-07-10T02:56:30.857Z,22.30
2018-07-10T02:57:35.683Z,22.30
2018-07-10T02:58:39.879Z,22.30
2018-07-10T02:59:45.156Z,22.30
2018-07-10T03:00:49.313Z,22.30
2018-07-10T03:01:53.449Z,22.30
2018-07-10T03:02:57.695Z,22.20
2018-07-10T03:04:01.949Z,22.20
2018-07-10T03:05:07.159Z,22.20
2018-07-10T03:06:11.471Z,22.20
2018-07-10T03:07:17.587Z,22.20
2018-07-10T03:08:22.023Z,22.20
2018-07-10T03:09:26.139Z,22.10
2018-07-10T03:10:30.201Z,22.10
2018-07-10T03:11:35.679Z,22.10
2018-07-10T03:12:40.627Z,22.10
2018-07-10T03:13:44.734Z,22.10
2018-07-10T03:14:48.946Z,22.10
2018-07-10T03:15:53.139Z,22.00
2018-07-10T03:16:57.744Z,22.00
2018-07-10T03:18:01.885Z,22.00
2018-07-10T03:19:07.259Z,22.00
2018-07-10T03:20:11.804Z,22.00
2018-07-10T03:21:15.973Z,22.00
2018-07-10T03:22:20.731Z,22.00
2018-07-10T03:23:24.910Z,22.00
2018-07-10T03:24:29.217Z,21.90
2018-07-10T03:25:33.374Z,22.00
2018-07-10T03:26:37.591Z,21.90
2018-07-10T03:27:41.831Z,22.00
2018-07-10T03:28:45.991Z,21.90
2018-07-10T03:29:50.192Z,21.90
2018-07-10T03:30:54.363Z,21.90
2018-07-10T03:31:58.514Z,21.90
2018-07-10T03:33:02.721Z,21.90
2018-07-10T03:34:06.924Z,21.90
2018-07-10T03:35:11.172Z,21.90
2018-07-10T03:36:15.367Z,21.90
2018-07-10T03:37:19.671Z,21.90
2018-07-10T03:38:23.906Z,21.90
2018-07-10T03:39:28.495Z,21.80
2018-07-10T03:40:32.640Z,21.80
2018-07-10T03:41:36.859Z,21.80
2018-07-10T03:42:41.242Z,21.80
2018-07-10T03:43:45.321Z,21.80
2018-07-10T03:44:50.084Z,21.70
2018-07-10T03:45:54.170Z,21.70
2018-07-10T03:46:58.337Z,21.70
2018-07-10T03:48:02.493Z,21.70
2018-07-10T03:49:06.692Z,21.70
2018-07-10T03:50:10.798Z,21.70
2018-07-10T03:51:14.942Z,21.70
2018-07-10T03:52:33.730Z,21.60
2018-07-10T03:53:37.897Z,21.60
2018-07-10T03:54:42.954Z,21.60
2018-07-10T03:55:47.101Z,21.60
2018-07-10T03:56:51.335Z,21.60
2018-07-10T03:57:57.424Z,21.60
2018-07-10T03:59:01.647Z,21.60
2018-07-10T04:00:10.835Z,21.60
2018-07-10T04:01:15.196Z,21.60
2018-07-10T04:02:19.387Z,21.60
2018-07-10T04:03:29.565Z,21.60
2018-07-10T04:04:33.745Z,21.60
2018-07-10T04:05:37.975Z,21.60
2018-07-10T04:06:42.822Z,21.60
2018-07-10T04:07:47.813Z,21.60
2018-07-10T04:08:51.926Z,21.60
2018-07-10T04:09:57.158Z,21.60
2018-07-10T04:11:01.597Z,21.60
2018-07-10T04:12:05.836Z,21.60
2018-07-10T04:13:16.176Z,21.60
2018-07-10T04:14:22.135Z,21.60
2018-07-10T04:15:26.337Z,21.60
2018-07-10T04:16:30.921Z,21.60
2018-07-10T04:17:41.829Z,21.60
2018-07-10T04:18:45.979Z,21.60
2018-07-10T04:19:50.165Z,21.60
2018-07-10T04:21:02.293Z,21.60
2018-07-10T04:22:06.454Z,21.60
2018-07-10T04:23:10.672Z,21.60
2018-07-10T04:24:17.455Z,21.60
2018-07-10T04:25:25.598Z,21.60
2018-07-10T04:26:29.874Z,21.60
2018-07-10T04:27:45.438Z,21.60
2018-07-10T04:28:58.858Z,21.60
2018-07-10T04:30:10.965Z,21.60
2018-07-10T04:31:27.407Z,21.60
2018-07-10T04:32:32.442Z,21.60
2018-07-10T04:33:36.677Z,21.60
2018-07-10T04:34:41.309Z,21.60
2018-07-10T04:35:45.505Z,21.60
2018-07-10T04:36:50.522Z,21.60
2018-07-10T04:37:54.784Z,21.60
2018-07-10T04:38:59.230Z,21.60
2018-07-10T04:40:04.230Z,21.60
2018-07-10T04:41:16.787Z,21.60
2018-07-10T04:42:29.325Z,21.60
2018-07-10T04:43:33.380Z,21.60
2018-07-10T04:44:37.510Z,21.60
2018-07-10T04:45:43.513Z,21.60
2018-07-10T04:46:57.313Z,21.60
2018-07-10T04:48:01.530Z,21.60
2018-07-10T04:49:30.325Z,21.60
2018-07-10T04:50:44.394Z,21.60
2018-07-10T04:51:53.691Z,21.70
2018-07-10T04:53:06.322Z,21.70
2018-07-10T04:55:15.612Z,21.60
2018-07-10T04:56:20.380Z,21.60
2018-07-10T04:57:29.649Z,21.60
2018-07-10T04:58:34.311Z,21.60
2018-07-10T04:59:38.457Z,21.60
2018-07-10T05:00:48.099Z,21.60
2018-07-10T05:01:52.293Z,21.50
2018-07-10T05:02:58.275Z,21.50
2018-07-10T05:04:03.182Z,21.50
2018-07-10T05:05:10.207Z,21.50
2018-07-10T05:06:17.190Z,21.50
2018-07-10T05:07:21.917Z,21.50
2018-07-10T05:08:27.490Z,21.50
2018-07-10T05:09:31.857Z,21.50
2018-07-10T05:10:36.627Z,21.50
2018-07-10T05:12:46.837Z,21.50
2018-07-10T05:13:51.164Z,21.50
2018-07-10T05:14:56.794Z,21.50
2018-07-10T05:16:05.310Z,21.50
2018-07-10T05:17:09.595Z,21.50
2018-07-10T05:18:14.082Z,21.50
2018-07-10T05:19:18.306Z,21.50
2018-07-10T05:20:23.317Z,21.50
2018-07-10T05:21:27.923Z,21.50
2018-07-10T05:22:31.997Z,21.50
2018-07-10T05:23:36.714Z,21.50
2018-07-10T05:26:01.583Z,21.50
2018-07-10T05:27:06.892Z,21.50
2018-07-10T05:28:11.082Z,21.50
2018-07-10T05:29:15.526Z,21.50
2018-07-10T05:30:20.531Z,21.50
2018-07-10T05:31:24.943Z,21.50
2018-07-10T05:32:30.376Z,21.50
2018-07-10T05:33:35.695Z,21.50
2018-07-10T05:34:41.294Z,21.50
2018-07-10T05:35:45.621Z,21.50
2018-07-10T05:36:50.515Z,21.50
2018-07-10T05:37:54.787Z,21.50
2018-07-10T05:39:04.625Z,21.50
2018-07-10T05:40:12.235Z,21.50
2018-07-10T05:41:20.762Z,21.50
2018-07-10T05:42:25.466Z,21.50
2018-07-10T05:43:30.222Z,21.50
2018-07-10T05:44:34.722Z,21.50
2018-07-10T05:45:40.096Z,21.50
2018-07-10T05:46:44.604Z,21.50
2018-07-10T05:47:51.731Z,21.60
2018-07-10T05:48:58.829Z,21.60
2018-07-10T05:50:07.215Z,21.60
2018-07-10T05:51:11.349Z,21.60
2018-07-10T05:52:16.109Z,21.70
2018-07-10T05:53:20.403Z,21.70
2018-07-10T05:54:26.594Z,21.70
2018-07-10T05:55:31.721Z,21.70
2018-07-10T05:56:36.987Z,21.80
2018-07-10T05:57:41.466Z,21.80
2018-07-10T05:58:45.684Z,21.80
2018-07-10T05:59:49.806Z,21.80
2018-07-10T06:00:54.057Z,21.90
2018-07-10T06:01:58.653Z,21.90
2018-07-10T06:03:02.910Z,21.90
2018-07-10T06:04:08.352Z,21.90
2018-07-10T06:05:12.626Z,21.90
2018-07-10T06:06:17.380Z,21.90
2018-07-10T06:07:22.499Z,21.90
2018-07-10T06:08:26.757Z,21.90
2018-07-10T06:09:30.924Z,21.90
2018-07-10T06:10:35.247Z,21.90
2018-07-10T06:11:39.595Z,21.90
2018-07-10T06:12:44.000Z,21.90
2018-07-10T06:13:48.285Z,21.90
2018-07-10T06:14:53.129Z,21.80
2018-07-10T06:15:57.504Z,21.80
2018-07-10T06:17:01.751Z,21.80
2018-07-10T06:18:06.445Z,21.80
2018-07-10T06:19:10.637Z,21.80
2018-07-10T06:20:15.443Z,21.80
2018-07-10T06:21:20.449Z,21.80
2018-07-10T06:22:25.460Z,21.80
2018-07-10T06:23:36.096Z,21.80
2018-07-10T06:25:43.925Z,21.80
2018-07-10T06:26:54.132Z,21.70
2018-07-10T06:28:01.765Z,21.70
2018-07-10T06:29:06.186Z,21.70
2018-07-10T06:30:11.391Z,21.70
2018-07-10T06:31:17.526Z,21.70
2018-07-10T06:34:37.347Z,21.70
2018-07-10T06:35:46.532Z,21.60
2018-07-10T06:36:57.719Z,21.60
2018-07-10T06:38:01.883Z,21.60
2018-07-10T06:39:14.876Z,21.60
2018-07-10T06:40:20.132Z,21.60
2018-07-10T06:41:25.613Z,21.60
2018-07-10T06:43:33.396Z,21.50
2018-07-10T06:44:37.994Z,21.60
2018-07-10T06:45:42.416Z,21.50
2018-07-10T06:46:51.140Z,21.50
2018-07-10T06:47:55.333Z,21.50
2018-07-10T06:49:10.591Z,21.50
2018-07-10T06:50:15.360Z,21.50
2018-07-10T06:51:20.052Z,21.40
2018-07-10T06:52:24.348Z,21.40
2018-07-10T06:54:51.465Z,21.50
2018-07-10T06:55:57.578Z,21.50
2018-07-10T06:57:02.138Z,21.50
2018-07-10T06:58:06.331Z,21.50
2018-07-10T06:59:10.562Z,21.50
2018-07-10T07:00:14.915Z,21.60
2018-07-10T07:01:19.042Z,21.60
2018-07-10T07:02:23.269Z,21.60
2018-07-10T07:03:27.464Z,21.60
2018-07-10T07:05:35.301Z,21.70
2018-07-10T07:06:39.429Z,21.70
2018-07-10T07:07:43.607Z,21.70
2018-07-10T07:08:47.778Z,21.80
2018-07-10T07:09:51.933Z,21.80
2018-07-10T07:10:56.425Z,21.90
2018-07-10T07:12:00.782Z,21.90
2018-07-10T07:13:04.884Z,21.90
2018-07-10T07:14:09.102Z,22.00
2018-07-10T07:15:17.742Z,22.00
2018-07-10T07:16:21.929Z,22.00
2018-07-10T07:17:26.417Z,22.10
2018-07-10T07:18:30.519Z,22.10
2018-07-10T07:19:34.670Z,22.20
2018-07-10T07:20:38.844Z,22.20
2018-07-10T07:21:42.962Z,22.30
2018-07-10T07:22:47.063Z,22.30
2018-07-10T07:23:51.294Z,22.40
2018-07-10T07:24:55.427Z,22.40
2018-07-10T07:25:59.577Z,22.40
2018-07-10T07:27:03.785Z,22.50
2018-07-10T07:28:08.502Z,22.50
2018-07-10T07:29:12.689Z,22.60
2018-07-10T07:30:16.986Z,22.70
2018-07-10T07:31:21.205Z,22.70
2018-07-10T07:32:26.128Z,22.80
2018-07-10T07:33:30.276Z,22.80
2018-07-10T07:34:34.388Z,22.90
2018-07-10T07:35:38.597Z,22.90
2018-07-10T07:36:42.746Z,23.00
2018-07-10T07:37:46.936Z,23.10
2018-07-10T07:38:51.327Z,23.10
2018-07-10T07:39:56.313Z,23.10
2018-07-10T07:41:00.677Z,23.20
2018-07-10T07:42:05.081Z,23.20
2018-07-10T07:43:09.400Z,23.30
2018-07-10T07:45:17.672Z,23.30
2018-07-10T07:46:22.461Z,23.40
2018-07-10T07:47:29.043Z,23.40
2018-07-10T07:48:33.523Z,23.50
2018-07-10T07:49:37.660Z,23.50
2018-07-10T07:50:41.804Z,23.50
2018-07-10T07:51:45.940Z,23.60
2018-07-10T07:52:50.201Z,23.60
2018-07-10T07:53:54.461Z,23.70
2018-07-10T07:55:01.253Z,23.70
2018-07-10T07:56:05.889Z,23.80
2018-07-10T07:57:10.190Z,23.80
2018-07-10T07:58:14.604Z,23.80
2018-07-10T07:59:18.743Z,23.80
2018-07-10T08:00:22.996Z,23.80
2018-07-10T08:01:27.118Z,23.80
2018-07-10T08:02:31.182Z,23.80
2018-07-10T08:03:36.840Z,23.80
2018-07-10T08:04:40.993Z,23.80
2018-07-10T08:05:45.238Z,23.90
2018-07-10T08:06:49.533Z,23.90
2018-07-10T08:07:53.753Z,23.90
2018-07-10T08:08:57.948Z,23.90
2018-07-10T08:10:02.267Z,24.00
2018-07-10T08:11:06.820Z,24.00
2018-07-10T08:12:11.044Z,24.00
2018-07-10T08:13:15.170Z,24.00
2018-07-10T08:14:19.341Z,24.10
2018-07-10T08:15:23.962Z,24.10
2018-07-10T08:17:35.446Z,24.10
2018-07-10T08:18:39.717Z,24.10
2018-07-10T08:19:45.289Z,24.20
2018-07-10T08:20:49.866Z,24.20
2018-07-10T08:21:55.072Z,24.20
2018-07-10T08:22:59.504Z,24.20
2018-07-10T08:24:04.678Z,24.30
2018-07-10T08:25:09.820Z,24.30
2018-07-10T08:26:14.709Z,24.30
2018-07-10T08:27:19.431Z,24.30
2018-07-10T08:28:23.952Z,24.30
2018-07-10T08:30:33.780Z,24.30
2018-07-10T08:31:39.009Z,24.30
2018-07-10T08:32:43.979Z,24.30
2018-07-10T08:33:48.420Z,24.30
2018-07-10T08:34:52.850Z,24.30
2018-07-10T08:35:57.192Z,24.30
2018-07-10T08:37:01.578Z,24.30
2018-07-10T08:38:06.777Z,24.40
2018-07-10T08:39:11.910Z,24.30
2018-07-10T08:40:16.334Z,24.40
2018-07-10T08:41:24.279Z,24.40
2018-07-10T08:42:29.847Z,24.40
2018-07-10T08:43:34.276Z,24.40
2018-07-10T08:44:39.332Z,24.40
2018-07-10T08:45:44.189Z,24.40
2018-07-10T08:46:50.617Z,24.40
2018-07-10T08:48:59.248Z,24.50
2018-07-10T08:50:04.428Z,24.50
2018-07-10T08:51:10.354Z,24.60
2018-07-10T08:52:15.827Z,24.60
2018-07-10T08:53:21.958Z,24.60
2018-07-10T08:54:28.746Z,24.60
2018-07-10T08:55:33.080Z,24.60
2018-07-10T08:56:37.970Z,24.70
2018-07-10T08:57:42.412Z,24.70
2018-07-10T08:58:47.407Z,24.60
2018-07-10T08:59:52.561Z,24.70
2018-07-10T09:00:56.944Z,24.70
2018-07-10T09:02:01.212Z,24.80
2018-07-10T09:03:07.015Z,24.80
2018-07-10T09:04:11.446Z,24.80
2018-07-10T09:05:16.855Z,24.90
2018-07-10T09:06:21.371Z,24.90
2018-07-10T09:07:25.515Z,25.00
2018-07-10T09:08:30.236Z,25.00
2018-07-10T09:09:34.769Z,25.10
2018-07-10T09:10:41.109Z,25.10
2018-07-10T09:11:46.151Z,25.20
2018-07-10T09:12:50.724Z,25.20
2018-07-10T09:13:55.398Z,25.20
2018-07-10T09:15:00.443Z,25.30
2018-07-10T09:16:04.678Z,25.30
2018-07-10T09:17:08.887Z,25.30
2018-07-10T09:18:13.250Z,25.30
2018-07-10T09:19:20.380Z,25.30
2018-07-10T09:21:31.543Z,25.40
2018-07-10T09:22:35.896Z,25.40
2018-07-10T09:23:40.153Z,25.40
2018-07-10T09:24:47.153Z,25.40
2018-07-10T09:25:55.027Z,25.40
2018-07-10T09:27:00.566Z,25.40
2018-07-10T09:28:05.179Z,25.40
2018-07-10T09:29:09.417Z,25.30
2018-07-10T09:30:13.558Z,25.30
2018-07-10T09:31:17.844Z,25.30
2018-07-10T09:32:27.557Z,25.30
2018-07-10T09:33:31.709Z,25.30
2018-07-10T09:34:35.789Z,25.30
2018-07-10T09:35:40.024Z,25.30
2018-07-10T09:36:44.255Z,25.30
2018-07-10T09:37:48.484Z,25.30
2018-07-10T09:38:52.828Z,25.30
2018-07-10T09:40:02.599Z,25.20
2018-07-10T09:41:07.784Z,25.20
2018-07-10T09:42:12.316Z,25.20
2018-07-10T09:43:16.531Z,25.20
2018-07-10T09:44:20.890Z,25.20
2018-07-10T09:45:28.056Z,25.20
2018-07-10T09:46:32.863Z,25.20
2018-07-10T09:47:36.971Z,25.20
2018-07-10T09:48:41.151Z,25.20
2018-07-10T09:49:45.449Z,25.20
2018-07-10T09:50:49.572Z,25.20
2018-07-10T09:51:54.011Z,25.10
2018-07-10T09:52:58.365Z,25.10
2018-07-10T09:54:02.564Z,25.10
2018-07-10T09:55:07.041Z,25.10
2018-07-10T09:56:11.259Z,25.20
2018-07-10T09:57:15.437Z,25.20
2018-07-10T09:58:20.955Z,25.20
2018-07-10T09:59:25.435Z,25.20
2018-07-10T10:01:39.382Z,25.20
2018-07-10T10:02:43.840Z,25.20
2018-07-10T10:03:48.021Z,25.20
2018-07-10T10:04:52.431Z,25.30
2018-07-10T10:05:56.987Z,25.30
2018-07-10T10:07:01.178Z,25.20
2018-07-10T10:08:05.377Z,25.30
2018-07-10T10:09:09.569Z,25.30
2018-07-10T10:10:13.807Z,25.30
2018-07-10T10:11:18.003Z,25.30
2018-07-10T10:12:22.618Z,25.30
2018-07-10T10:13:26.772Z,25.30
2018-07-10T10:14:30.949Z,25.30
2018-07-10T10:15:35.989Z,25.40
2018-07-10T10:16:40.189Z,25.40
2018-07-10T10:17:49.917Z,25.30
2018-07-10T10:18:59.350Z,25.30
2018-07-10T10:21:09.531Z,25.40
2018-07-10T10:23:18.412Z,25.40
2018-07-10T10:24:22.683Z,25.40
2018-07-10T10:25:26.933Z,25.40
2018-07-10T10:26:31.170Z,25.40
2018-07-10T10:27:35.407Z,25.40
2018-07-10T10:28:39.674Z,25.50
2018-07-10T10:29:43.909Z,25.50
2018-07-10T10:30:48.136Z,25.50
2018-07-10T10:31:52.371Z,25.60
2018-07-10T10:32:56.661Z,25.70
2018-07-10T10:34:00.781Z,25.70
2018-07-10T10:35:04.979Z,25.80
2018-07-10T10:36:09.270Z,25.80
2018-07-10T10:37:13.486Z,26.00
2018-07-10T10:38:18.606Z,26.00
2018-07-10T10:39:22.734Z,26.10
2018-07-10T10:40:27.645Z,26.20
2018-07-10T10:41:31.875Z,26.30
2018-07-10T10:42:36.494Z,26.40
2018-07-10T10:43:40.839Z,26.50
2018-07-10T10:44:46.872Z,26.60
2018-07-10T10:46:54.806Z,26.80
2018-07-10T10:47:59.180Z,26.90
2018-07-10T10:50:07.563Z,27.10
2018-07-10T10:51:12.857Z,27.10
2018-07-10T10:52:17.388Z,27.10
2018-07-10T10:53:21.984Z,27.20
2018-07-10T10:54:26.099Z,27.20
2018-07-10T10:55:30.445Z,27.30
2018-07-10T10:56:34.647Z,27.40
2018-07-10T10:57:40.400Z,27.40
2018-07-10T10:58:44.602Z,27.60
2018-07-10T10:59:51.319Z,27.70
2018-07-10T11:00:55.476Z,27.80
2018-07-10T11:01:59.721Z,27.90
2018-07-10T11:03:04.252Z,28.10
2018-07-10T11:04:08.439Z,28.20
2018-07-10T11:05:12.824Z,28.40
2018-07-10T11:06:17.022Z,28.60
2018-07-10T11:07:21.624Z,28.70
2018-07-10T11:08:25.816Z,28.90
2018-07-10T11:09:30.267Z,29.10
2018-07-10T11:10:35.448Z,29.30
2018-07-10T11:11:39.580Z,29.50
2018-07-10T11:12:43.758Z,29.60
2018-07-10T11:13:47.928Z,29.80
2018-07-10T11:14:52.163Z,29.90
2018-07-10T11:15:56.356Z,30.10
2018-07-10T11:17:01.140Z,30.20
2018-07-10T11:18:07.522Z,30.30
2018-07-10T11:19:21.457Z,30.40
2018-07-10T11:21:03.268Z,30.50
2018-07-10T11:22:10.491Z,30.60
2018-07-10T11:23:55.317Z,30.60
2018-07-10T11:25:04.319Z,30.60
2018-07-10T11:26:11.975Z,30.60
2018-07-10T11:27:28.804Z,30.60
2018-07-10T11:28:33.047Z,30.60
2018-07-10T11:29:37.356Z,30.50
2018-07-10T11:30:41.502Z,30.50
2018-07-10T11:31:45.852Z,30.50
2018-07-10T11:32:50.111Z,30.50
2018-07-10T11:33:54.333Z,30.40
2018-07-10T11:36:02.261Z,30.30
2018-07-10T11:37:06.573Z,30.20
2018-07-10T11:38:12.065Z,30.20
2018-07-10T11:39:16.303Z,30.10
2018-07-10T11:40:20.513Z,30.00
2018-07-10T11:41:25.387Z,29.90
2018-07-10T11:42:29.575Z,29.80
2018-07-10T11:43:33.783Z,29.70
2018-07-10T11:44:38.006Z,29.60
2018-07-10T11:45:42.199Z,29.50
2018-07-10T11:46:46.891Z,29.50
2018-07-10T11:48:55.106Z,29.50
2018-07-10T11:49:59.540Z,29.50
2018-07-10T11:51:03.856Z,29.50
2018-07-10T11:52:08.018Z,29.60
2018-07-10T11:53:12.266Z,29.60
2018-07-10T11:54:17.220Z,29.60
2018-07-10T11:55:21.432Z,29.70
2018-07-10T11:56:25.708Z,29.70
2018-07-10T11:57:30.304Z,29.80
2018-07-10T11:58:34.563Z,29.80
2018-07-10T12:00:42.674Z,29.90
2018-07-10T12:01:46.926Z,29.90
2018-07-10T12:02:51.211Z,29.90
2018-07-10T12:03:56.407Z,29.90
2018-07-10T12:05:00.743Z,29.90
2018-07-10T12:06:05.383Z,29.80
2018-07-10T12:07:09.555Z,29.80
2018-07-10T12:08:13.891Z,29.80
2018-07-10T12:09:18.479Z,29.70
2018-07-10T12:10:29.765Z,29.60
2018-07-10T12:11:33.993Z,29.50
2018-07-10T12:12:38.172Z,29.30
2018-07-10T12:13:42.591Z,29.20
2018-07-10T12:14:46.822Z,29.10
2018-07-10T12:15:50.995Z,29.00
2018-07-10T12:16:55.067Z,28.80
2018-07-10T12:17:59.819Z,28.70
2018-07-10T12:19:04.230Z,28.70
2018-07-10T12:20:08.480Z,28.60
2018-07-10T12:21:14.602Z,28.50
2018-07-10T12:22:18.774Z,28.40
2018-07-10T12:23:22.867Z,28.30
2018-07-10T12:24:27.075Z,28.30
2018-07-10T12:25:37.113Z,28.20
2018-07-10T12:26:41.430Z,28.20
2018-07-10T12:27:45.611Z,28.20
2018-07-10T12:28:50.112Z,28.10
2018-07-10T12:29:54.363Z,28.10
2018-07-10T12:30:58.562Z,28.10
2018-07-10T12:32:02.816Z,28.10
2018-07-10T12:33:07.441Z,28.20
2018-07-10T12:34:11.665Z,28.30
2018-07-10T12:35:15.869Z,28.30
2018-07-10T12:36:20.038Z,28.40
2018-07-10T12:37:24.230Z,28.50
2018-07-10T12:38:28.507Z,28.70
2018-07-10T12:39:32.679Z,28.80
2018-07-10T12:40:36.860Z,29.00
2018-07-10T12:41:41.115Z,29.10
2018-07-10T12:42:45.269Z,29.30
2018-07-10T12:43:49.475Z,29.50
2018-07-10T12:44:53.557Z,29.60
2018-07-10T12:45:57.857Z,29.90
2018-07-10T12:47:02.054Z,30.00
2018-07-10T12:48:06.319Z,30.20
2018-07-10T12:49:10.403Z,30.40
2018-07-10T12:51:18.310Z,30.50
2018-07-10T12:52:22.431Z,30.70
2018-07-10T12:53:27.142Z,30.70
2018-07-10T12:54:31.649Z,30.90
2018-07-10T12:55:36.446Z,30.90
2018-07-10T12:56:40.529Z,30.90
2018-07-10T12:57:46.029Z,31.00
2018-07-10T12:58:50.331Z,31.10
2018-07-10T12:59:54.519Z,31.10
2018-07-10T13:00:58.722Z,31.20
2018-07-10T13:02:02.909Z,31.10
2018-07-10T13:03:08.584Z,31.10
2018-07-10T13:04:12.797Z,31.10
2018-07-10T13:05:18.442Z,31.00
2018-07-10T13:06:29.273Z,31.00
2018-07-10T13:07:33.690Z,31.00
2018-07-10T13:08:37.913Z,31.00
2018-07-10T13:09:42.050Z,31.00
2018-07-10T13:10:46.441Z,31.00
2018-07-10T13:11:50.604Z,31.00
2018-07-10T13:12:54.789Z,31.00
2018-07-10T13:13:58.887Z,31.00
2018-07-10T13:15:02.959Z,30.90
2018-07-10T13:16:07.167Z,30.90
2018-07-10T13:17:11.543Z,30.90
2018-07-10T13:18:19.767Z,30.90
2018-07-10T13:19:23.950Z,30.80
2018-07-10T13:20:29.179Z,30.80
2018-07-10T13:21:33.348Z,30.80
2018-07-10T13:22:37.628Z,30.80
2018-07-10T13:23:41.829Z,30.70
2018-07-10T13:24:46.439Z,30.70
2018-07-10T13:25:50.637Z,30.70
2018-07-10T13:26:54.828Z,30.70
2018-07-10T13:27:59.386Z,30.80
2018-07-10T13:29:03.470Z,30.80
2018-07-10T13:30:08.030Z,30.80
2018-07-10T13:31:12.248Z,30.90
2018-07-10T13:32:16.376Z,31.00
2018-07-10T13:33:20.557Z,31.10
2018-07-10T13:34:24.744Z,31.20
2018-07-10T13:35:29.083Z,31.20
2018-07-10T13:36:33.274Z,31.30
2018-07-10T13:37:39.060Z,31.30
2018-07-10T13:38:43.233Z,31.40
2018-07-10T13:39:47.445Z,31.40
2018-07-10T13:40:53.777Z,31.50
2018-07-10T13:41:57.930Z,31.50
2018-07-10T13:43:02.203Z,31.50
2018-07-10T13:44:06.446Z,31.50
2018-07-10T13:45:10.835Z,31.60
2018-07-10T13:46:15.212Z,31.60
2018-07-10T13:47:19.458Z,31.70
2018-07-10T13:48:23.607Z,31.70
2018-07-10T13:49:27.847Z,31.80
2018-07-10T13:50:33.470Z,31.80
2018-07-10T13:51:37.616Z,31.90
2018-07-10T13:52:42.327Z,31.90
2018-07-10T13:53:46.498Z,32.00
2018-07-10T13:54:50.802Z,31.90
2018-07-10T13:55:55.042Z,31.90
2018-07-10T13:56:59.467Z,32.00
2018-07-10T13:58:22.668Z,32.00
2018-07-10T13:59:27.295Z,31.90
2018-07-10T14:00:31.946Z,31.90
2018-07-10T14:01:37.920Z,31.80
2018-07-10T14:02:42.088Z,31.80
2018-07-10T14:03:46.628Z,31.70
2018-07-10T14:04:50.983Z,31.60
2018-07-10T14:05:55.281Z,31.60
2018-07-10T14:06:59.427Z,31.60
2018-07-10T14:08:03.868Z,31.60
2018-07-10T14:09:08.083Z,31.50
2018-07-10T14:10:12.253Z,31.50
2018-07-10T14:11:16.575Z,31.50
2018-07-10T14:12:20.877Z,31.50
2018-07-10T14:13:24.964Z,31.50
2018-07-10T14:14:29.134Z,31.50
2018-07-10T14:15:33.394Z,31.50
2018-07-10T14:16:37.614Z,31.40
2018-07-10T14:17:42.831Z,31.50
2018-07-10T14:18:51.318Z,31.40
2018-07-10T14:19:55.544Z,31.50
2018-07-10T14:21:01.473Z,31.50
2018-07-10T14:22:05.812Z,31.50
2018-07-10T14:24:16.367Z,31.40
2018-07-10T14:25:20.608Z,31.30
2018-07-10T14:26:24.836Z,31.20
2018-07-10T14:27:29.189Z,31.10
2018-07-10T14:28:33.674Z,31.00
2018-07-10T14:29:38.152Z,30.90
2018-07-10T14:30:42.367Z,30.80
2018-07-10T14:31:46.582Z,30.70
2018-07-10T14:32:50.791Z,30.60
2018-07-10T14:33:54.964Z,30.50
2018-07-10T14:34:59.199Z,30.40
2018-07-10T14:36:03.345Z,30.40
2018-07-10T14:37:07.584Z,30.20
2018-07-10T14:38:15.228Z,30.20